createdAt,value
2019-05-19T00:00:43.223Z,27.60
2019-05-19T00:03:13.341Z,28.92
2019-05-19T00:05:43.098Z,29.63
2019-05-19T00:08:13.830Z,28.00
2019-05-19T00:10:43.937Z,29.02
2019-05-19T00:13:14.178Z,28.20
2019-05-19T00:15:43.940Z,28.45
2019-05-19T00:18:13.820Z,30.12
2019-05-19T00:20:43.585Z,31.37
2019-05-19T00:23:13.702Z,30.43
2019-05-19T00:25:43.706Z,31.40
2019-05-19T00:28:13.594Z,30.17
2019-05-19T00:30:43.232Z,31.87
2019-05-19T00:33:12.990Z,32.75
2019-05-19T00:35:42.625Z,30.97
2019-05-19T00:38:12.265Z,31.20
2019-05-19T00:40:42.264Z,31.17
2019-05-19T00:43:11.918Z,32.00
2019-05-19T00:45:42.991Z,33.85
2019-05-19T00:48:12.629Z,37.63
2019-05-19T00:50:42.395Z,36.10
2019-05-19T00:53:12.269Z,33.48
2019-05-19T00:55:42.390Z,30.88
2019-05-19T00:58:13.349Z,32.25
2019-05-19T01:00:43.474Z,31.50
2019-05-19T01:03:13.598Z,30.60
2019-05-19T01:05:43.603Z,30.50
2019-05-19T01:08:13.364Z,29.75
2019-05-19T01:10:43.006Z,29.90
2019-05-19T01:13:12.880Z,28.98
2019-05-19T01:15:42.879Z,30.32
2019-05-19T01:18:13.116Z,31.00
2019-05-19T01:20:43.602Z,29.48
2019-05-19T01:23:13.487Z,28.92
2019-05-19T01:25:43.609Z,28.85
2019-05-19T01:28:13.848Z,30.68
2019-05-19T01:30:43.962Z,28.85
2019-05-19T01:33:13.607Z,31.77
2019-05-19T01:35:43.732Z,29.63
2019-05-19T01:38:13.365Z,32.35
2019-05-19T01:40:43.008Z,32.23
2019-05-19T01:43:13.006Z,33.55
2019-05-19T01:45:43.036Z,34.58
2019-05-19T01:48:13.018Z,33.33
2019-05-19T01:50:42.655Z,33.92
2019-05-19T01:53:12.531Z,36.60
2019-05-19T01:55:42.175Z,36.35
2019-05-19T01:58:11.945Z,34.00
2019-05-19T02:00:42.058Z,36.28
2019-05-19T02:03:11.820Z,35.15
2019-05-19T02:05:41.834Z,33.73
2019-05-19T02:08:11.936Z,32.90
2019-05-19T02:10:42.060Z,32.60
2019-05-19T02:13:12.296Z,30.80
2019-05-19T02:15:41.942Z,31.85
2019-05-19T02:18:11.705Z,31.23
2019-05-19T02:20:41.367Z,32.67
2019-05-19T02:23:11.221Z,31.97
2019-05-19T02:25:41.346Z,34.03
2019-05-19T02:28:11.586Z,32.48
2019-05-19T02:30:41.350Z,32.98
2019-05-19T02:33:11.126Z,33.38
2019-05-19T02:35:40.877Z,34.27
2019-05-19T02:38:10.867Z,34.08
2019-05-19T02:40:44.588Z,34.83
2019-05-19T02:43:15.667Z,34.13
2019-05-19T02:45:46.988Z,34.35
2019-05-19T02:48:19.158Z,34.05
2019-05-19T02:50:52.884Z,34.85
2019-05-19T02:53:22.876Z,32.95
2019-05-19T02:55:53.607Z,33.83
2019-05-19T02:58:23.713Z,34.80
2019-05-19T03:00:53.718Z,37.73
2019-05-19T03:03:23.356Z,37.08
2019-05-19T03:05:53.478Z,36.00
2019-05-19T03:08:23.360Z,39.35
2019-05-19T03:10:53.629Z,37.85
2019-05-19T03:13:23.479Z,36.60
2019-05-19T03:15:53.239Z,39.10
2019-05-19T03:18:23.001Z,37.35
2019-05-19T03:21:09.815Z,37.20
2019-05-19T03:23:24.685Z,35.58
2019-05-19T03:25:54.682Z,35.40
2019-05-19T03:28:24.801Z,36.08
2019-05-19T03:30:56.264Z,36.63
2019-05-19T03:33:27.704Z,36.68
2019-05-19T03:35:58.055Z,36.45
2019-05-19T03:38:28.292Z,36.00
2019-05-19T03:40:58.168Z,35.50
2019-05-19T03:43:27.929Z,36.13
2019-05-19T03:45:57.814Z,35.28
2019-05-19T03:48:27.583Z,34.60
2019-05-19T03:50:57.212Z,33.85
2019-05-19T03:53:27.335Z,35.52
2019-05-19T03:55:56.978Z,34.25
2019-05-19T03:58:26.975Z,34.13
2019-05-19T04:00:56.860Z,32.10
2019-05-19T04:03:26.654Z,30.97
2019-05-19T04:05:56.513Z,29.70
2019-05-19T04:08:26.258Z,28.90
2019-05-19T04:10:55.901Z,28.85
2019-05-19T04:13:25.677Z,28.60
2019-05-19T04:15:55.428Z,29.48
2019-05-19T04:18:25.308Z,29.63
2019-05-19T04:20:54.944Z,30.30
2019-05-19T04:23:24.702Z,28.98
2019-05-19T04:25:54.722Z,28.20
2019-05-19T04:28:24.823Z,28.27
2019-05-19T04:30:54.705Z,27.25
2019-05-19T04:33:24.464Z,25.50
2019-05-19T04:35:57.438Z,23.42
2019-05-19T04:38:25.669Z,24.67
2019-05-19T04:40:55.553Z,25.02
2019-05-19T04:43:25.315Z,24.72
2019-05-19T04:45:55.078Z,24.18
2019-05-19T04:48:25.074Z,24.45
2019-05-19T04:50:54.955Z,24.10
2019-05-19T04:53:24.958Z,24.82
2019-05-19T04:55:54.716Z,24.70
2019-05-19T04:58:24.357Z,25.43
2019-05-19T05:00:54.600Z,25.95
2019-05-19T05:03:24.360Z,25.88
2019-05-19T05:05:54.122Z,27.32
2019-05-19T05:08:30.028Z,25.82
2019-05-19T05:10:55.197Z,26.42
2019-05-19T05:13:25.206Z,24.18
2019-05-19T05:15:55.442Z,26.23
2019-05-19T05:18:25.211Z,26.52
2019-05-19T05:20:55.202Z,29.15
2019-05-19T05:23:25.328Z,27.85
2019-05-19T05:25:55.087Z,29.12
2019-05-19T05:28:25.088Z,29.25
2019-05-19T05:30:55.334Z,28.98
2019-05-19T05:33:24.968Z,27.93
2019-05-19T05:35:54.967Z,27.55
2019-05-19T05:38:25.216Z,30.85
2019-05-19T05:40:55.091Z,30.35
2019-05-19T05:43:24.851Z,30.72
2019-05-19T05:45:54.974Z,29.32
2019-05-19T05:48:25.221Z,28.77
2019-05-19T05:50:55.454Z,29.20
2019-05-19T05:53:25.094Z,29.35
2019-05-19T05:55:55.228Z,28.42
2019-05-19T05:58:25.214Z,29.98
2019-05-19T06:00:55.454Z,27.82
2019-05-19T06:03:25.337Z,27.77
2019-05-19T06:05:55.218Z,28.55
2019-05-19T06:08:24.859Z,28.02
2019-05-19T06:10:55.099Z,28.42
2019-05-19T06:13:25.222Z,28.05
2019-05-19T06:15:55.461Z,27.65
2019-05-19T06:18:25.464Z,27.73
2019-05-19T06:20:55.100Z,27.82
2019-05-19T06:23:24.743Z,24.87
2019-05-19T06:25:54.867Z,26.23
2019-05-19T06:28:24.747Z,26.35
2019-05-19T06:31:12.865Z,26.48
2019-05-19T06:33:42.957Z,27.10
2019-05-19T06:36:12.628Z,26.65
2019-05-19T06:38:42.395Z,26.93
2019-05-19T06:41:12.271Z,27.80
2019-05-19T06:43:42.395Z,27.80
2019-05-19T06:46:12.162Z,26.07
2019-05-19T06:48:42.275Z,28.87
2019-05-19T06:51:12.395Z,26.93
2019-05-19T06:53:42.035Z,25.43
2019-05-19T06:56:11.797Z,27.73
2019-05-19T06:58:41.921Z,28.12
2019-05-19T07:01:12.399Z,26.93
2019-05-19T07:03:42.054Z,27.82
2019-05-19T07:06:12.277Z,26.50
2019-05-19T07:08:42.042Z,25.45
2019-05-19T07:11:12.278Z,26.00
2019-05-19T07:13:42.068Z,24.52
2019-05-19T07:16:11.920Z,24.95
2019-05-19T07:18:41.684Z,25.12
2019-05-19T07:21:12.413Z,25.05
2019-05-19T07:23:42.522Z,24.90
2019-05-19T07:26:12.769Z,23.95
2019-05-19T07:28:43.005Z,25.08
2019-05-19T07:31:12.898Z,24.87
2019-05-19T07:33:42.539Z,25.35
2019-05-19T07:36:12.656Z,25.85
2019-05-19T07:38:42.890Z,24.90
2019-05-19T07:41:13.135Z,25.60
2019-05-19T07:43:43.250Z,25.45
2019-05-19T07:46:13.138Z,25.12
2019-05-19T07:48:42.774Z,24.23
2019-05-19T07:51:13.012Z,24.07
2019-05-19T07:53:43.457Z,24.75
2019-05-19T07:56:13.526Z,24.47
2019-05-19T07:58:43.626Z,24.35
2019-05-19T08:01:13.862Z,23.60
2019-05-19T08:03:43.498Z,23.92
2019-05-19T08:06:13.381Z,23.95
2019-05-19T08:08:43.140Z,22.93
2019-05-19T08:11:13.265Z,23.05
2019-05-19T08:13:43.389Z,22.75
2019-05-19T08:16:13.383Z,23.57
2019-05-19T08:18:43.411Z,22.48
2019-05-19T08:21:14.838Z,22.37
2019-05-19T08:23:59.183Z,23.07
2019-05-19T08:26:20.012Z,22.30
2019-05-19T08:28:49.759Z,23.42
2019-05-19T08:31:19.628Z,21.50
2019-05-19T08:33:49.417Z,21.50
2019-05-19T08:36:19.751Z,22.42
2019-05-19T08:38:51.082Z,22.37
2019-05-19T08:41:21.570Z,21.95
2019-05-19T08:43:54.912Z,21.90
2019-05-19T08:46:26.329Z,22.58
2019-05-19T08:48:59.360Z,23.65
2019-05-19T08:51:53.835Z,23.87
2019-05-19T08:54:25.529Z,22.37
2019-05-19T08:56:56.494Z,21.00
2019-05-19T08:59:26.874Z,20.88
2019-05-19T09:01:58.488Z,21.55
2019-05-19T09:04:29.566Z,20.70
2019-05-19T09:06:59.498Z,20.88
2019-05-19T09:09:29.247Z,20.80
2019-05-19T09:11:59.251Z,21.10
2019-05-19T09:14:29.477Z,20.10
2019-05-19T09:17:01.614Z,21.27
2019-05-19T09:19:31.400Z,21.25
2019-05-19T09:22:01.162Z,20.68
2019-05-19T09:24:31.198Z,21.33
2019-05-19T09:27:01.286Z,19.15
2019-05-19T09:29:31.408Z,20.37
2019-05-19T09:32:02.331Z,21.30
2019-05-19T09:34:32.128Z,19.50
2019-05-19T09:37:02.370Z,19.82
2019-05-19T09:39:33.687Z,20.17
2019-05-19T09:42:06.569Z,17.45
2019-05-19T09:44:36.206Z,17.50
2019-05-19T09:47:06.093Z,20.00
2019-05-19T09:49:36.213Z,19.67
2019-05-19T09:52:10.530Z,19.05
2019-05-19T09:54:45.370Z,18.45
2019-05-19T09:57:12.219Z,18.85
2019-05-19T09:59:42.213Z,18.80
2019-05-19T10:02:11.978Z,18.90
2019-05-19T10:04:41.616Z,17.12
2019-05-19T10:07:11.658Z,16.65
2019-05-19T10:10:02.985Z,17.57
2019-05-19T10:12:33.102Z,18.48
2019-05-19T10:15:03.362Z,17.12
2019-05-19T10:17:33.217Z,17.45
2019-05-19T10:20:03.343Z,19.10
2019-05-19T10:22:33.689Z,17.65
2019-05-19T10:25:20.282Z,15.90
2019-05-19T10:27:35.658Z,17.30
2019-05-19T10:30:08.023Z,16.60
2019-05-19T10:32:37.908Z,17.00
2019-05-19T10:35:08.267Z,15.58
2019-05-19T10:37:38.504Z,16.48
2019-05-19T10:40:08.632Z,16.05
2019-05-19T10:42:38.866Z,15.20
2019-05-19T10:45:10.786Z,16.48
2019-05-19T10:47:41.027Z,15.72
2019-05-19T10:50:11.878Z,14.55
2019-05-19T10:52:41.653Z,13.10
2019-05-19T10:55:11.651Z,12.40
2019-05-19T10:57:41.767Z,12.88
2019-05-19T11:00:12.114Z,12.25
2019-05-19T11:02:47.998Z,11.57
2019-05-19T11:05:18.359Z,12.65
2019-05-19T11:07:48.720Z,13.35
2019-05-19T11:10:18.720Z,13.18
2019-05-19T11:12:50.400Z,13.35
2019-05-19T11:15:21.476Z,12.53
2019-05-19T11:17:52.686Z,12.93
2019-05-19T11:20:22.835Z,12.75
2019-05-19T11:22:52.775Z,14.25
2019-05-19T11:25:33.381Z,14.65
2019-05-19T11:27:54.604Z,12.78
2019-05-19T11:30:24.392Z,12.70
2019-05-19T11:32:54.363Z,13.25
2019-05-19T11:35:24.484Z,13.72
2019-05-19T11:37:54.608Z,12.93
2019-05-19T11:40:24.729Z,12.40
2019-05-19T11:42:54.483Z,13.03
2019-05-19T11:45:24.607Z,12.90
2019-05-19T11:47:54.487Z,12.55
2019-05-19T11:50:24.647Z,13.15
2019-05-19T11:52:54.847Z,13.15
2019-05-19T11:55:24.744Z,12.70
2019-05-19T11:57:54.730Z,13.08
2019-05-19T12:00:24.849Z,13.13
2019-05-19T12:02:54.732Z,13.15
2019-05-19T12:05:24.529Z,12.53
2019-05-19T12:07:54.626Z,11.97
2019-05-19T12:10:24.735Z,11.90
2019-05-19T12:12:54.614Z,11.10
2019-05-19T12:15:24.994Z,12.25
2019-05-19T12:17:54.734Z,10.95
2019-05-19T12:20:24.500Z,10.98
2019-05-19T12:22:54.618Z,11.28
2019-05-19T12:25:24.739Z,11.12
2019-05-19T12:27:54.389Z,10.78
2019-05-19T12:30:24.494Z,10.20
2019-05-19T12:32:54.139Z,10.08
2019-05-19T12:35:24.029Z,9.65
2019-05-19T12:37:53.787Z,9.65
2019-05-19T12:40:23.829Z,9.65
2019-05-19T12:42:53.992Z,9.85
2019-05-19T12:45:24.356Z,9.95
2019-05-19T12:47:54.742Z,8.80
2019-05-19T12:50:24.865Z,9.78
2019-05-19T12:52:54.989Z,9.95
2019-05-19T12:55:25.241Z,9.53
2019-05-19T12:57:54.987Z,8.60
2019-05-19T13:00:25.353Z,8.85
2019-05-19T13:02:55.474Z,9.23
2019-05-19T13:05:25.712Z,8.48
2019-05-19T13:07:55.472Z,8.88
2019-05-19T13:10:25.349Z,8.55
2019-05-19T13:12:55.352Z,8.35
2019-05-19T13:15:25.234Z,8.68
2019-05-19T13:17:55.477Z,8.73
2019-05-19T13:20:25.235Z,8.03
2019-05-19T13:22:54.876Z,8.35
2019-05-19T13:25:25.119Z,8.60
2019-05-19T13:27:54.769Z,9.10
2019-05-19T13:30:24.398Z,8.80
2019-05-19T13:32:54.164Z,8.60
2019-05-19T13:35:24.397Z,8.05
2019-05-19T13:37:54.039Z,9.28
2019-05-19T13:40:24.166Z,8.30
2019-05-19T13:42:54.283Z,9.25
2019-05-19T13:45:24.525Z,8.25
2019-05-19T13:47:54.526Z,8.68
2019-05-19T13:50:24.767Z,8.08
2019-05-19T13:52:54.534Z,8.45
2019-05-19T13:55:24.406Z,8.50
2019-05-19T13:57:54.289Z,8.93
2019-05-19T14:00:24.169Z,8.48
2019-05-19T14:02:54.291Z,8.58
2019-05-19T14:05:24.172Z,8.55
2019-05-19T14:07:53.933Z,8.78
2019-05-19T14:10:23.814Z,8.93
2019-05-19T14:12:53.577Z,8.30
2019-05-19T14:15:24.064Z,8.10
2019-05-19T14:17:54.176Z,8.30
2019-05-19T14:20:24.415Z,9.03
2019-05-19T14:22:54.173Z,8.95
2019-05-19T14:25:24.067Z,8.70
2019-05-19T14:27:53.954Z,8.58
2019-05-19T14:30:23.702Z,8.15
2019-05-19T14:32:53.583Z,9.23
2019-05-19T14:35:23.833Z,9.13
2019-05-19T14:37:53.850Z,8.73
2019-05-19T14:40:23.593Z,8.45
2019-05-19T14:42:55.406Z,8.90
2019-05-19T14:45:25.766Z,9.20
2019-05-19T14:47:56.948Z,9.80
2019-05-19T14:50:26.708Z,9.73
2019-05-19T14:52:57.366Z,10.32
2019-05-19T14:55:27.550Z,10.23
2019-05-19T14:57:57.667Z,10.30
2019-05-19T15:00:27.881Z,10.13
2019-05-19T15:02:57.910Z,10.18
2019-05-19T15:05:28.150Z,9.88
2019-05-19T15:07:57.914Z,5.70
2019-05-19T15:10:28.029Z,6.50
2019-05-19T15:12:57.799Z,5.00
2019-05-19T15:15:28.032Z,3.87
2019-05-19T15:17:58.276Z,4.97
2019-05-19T15:20:28.392Z,5.12
2019-05-19T15:22:58.637Z,5.40
2019-05-19T15:25:28.525Z,4.97
2019-05-19T15:28:00.858Z,4.50
2019-05-19T15:30:30.198Z,4.12
2019-05-19T15:33:00.448Z,3.58
2019-05-19T15:35:30.077Z,3.90
2019-05-19T15:37:59.957Z,3.60
2019-05-19T15:40:29.732Z,3.27
2019-05-19T15:42:59.840Z,3.42
2019-05-19T15:45:29.844Z,3.77
2019-05-19T15:47:59.483Z,3.60
2019-05-19T15:50:29.723Z,3.77
2019-05-19T15:53:00.923Z,3.77
2019-05-19T15:55:31.050Z,4.03
2019-05-19T15:58:15.516Z,3.83
2019-05-19T16:00:33.208Z,4.40
2019-05-19T16:03:02.874Z,4.40
2019-05-19T16:05:32.969Z,4.12
2019-05-19T16:08:03.112Z,3.90
2019-05-19T16:10:32.847Z,4.33
2019-05-19T16:13:02.491Z,4.03
2019-05-19T16:15:32.613Z,4.10
2019-05-19T16:18:02.851Z,3.90
2019-05-19T16:20:32.613Z,3.75
2019-05-19T16:23:02.974Z,4.67
2019-05-19T16:25:32.975Z,5.05
2019-05-19T16:28:02.853Z,6.05
2019-05-19T16:30:32.974Z,5.72
2019-05-19T16:33:03.216Z,5.95
2019-05-19T16:35:33.347Z,6.17
2019-05-19T16:38:08.984Z,7.67
2019-05-19T16:40:38.743Z,8.65
2019-05-19T16:43:08.621Z,4.87
2019-05-19T16:45:38.388Z,4.87
2019-05-19T16:48:08.502Z,4.35
2019-05-19T16:50:38.262Z,4.95
2019-05-19T16:53:08.503Z,5.00
2019-05-19T16:55:38.622Z,4.83
2019-05-19T16:58:20.575Z,4.90
2019-05-19T17:00:40.545Z,4.90
2019-05-19T17:03:10.429Z,5.47
2019-05-19T17:05:40.190Z,4.80
2019-05-19T17:08:10.332Z,4.95
2019-05-19T17:10:40.309Z,5.15
2019-05-19T17:13:10.554Z,4.50
2019-05-19T17:15:40.556Z,4.78
2019-05-19T17:18:10.558Z,4.90
2019-05-19T17:20:40.438Z,4.85
2019-05-19T17:23:10.557Z,4.78
2019-05-19T17:25:40.435Z,4.50
2019-05-19T17:28:10.938Z,4.53
2019-05-19T17:30:40.940Z,4.40
2019-05-19T17:33:10.951Z,4.50
2019-05-19T17:35:41.523Z,4.50
2019-05-19T17:38:12.242Z,4.85
2019-05-19T17:40:41.971Z,5.33
2019-05-19T17:43:12.240Z,4.58
2019-05-19T17:45:42.358Z,5.60
2019-05-19T17:48:25.667Z,5.90
2019-05-19T17:50:44.185Z,5.85
2019-05-19T17:53:14.042Z,5.97
2019-05-19T17:55:46.331Z,5.25
2019-05-19T17:58:16.456Z,5.23
2019-05-19T18:00:46.206Z,5.50
2019-05-19T18:03:16.447Z,5.30
2019-05-19T18:05:46.689Z,5.60
2019-05-19T18:08:16.930Z,6.05
2019-05-19T18:10:46.691Z,5.72
2019-05-19T18:13:16.573Z,6.58
2019-05-19T18:15:46.689Z,5.47
2019-05-19T18:18:16.814Z,5.33
2019-05-19T18:20:47.242Z,5.87
2019-05-19T18:23:17.291Z,5.58
2019-05-19T18:25:47.172Z,6.03
2019-05-19T18:28:17.299Z,5.50
2019-05-19T18:30:47.075Z,5.67
2019-05-19T18:33:17.055Z,5.87
2019-05-19T18:35:46.937Z,5.92
2019-05-19T18:38:17.064Z,5.70
2019-05-19T18:40:46.696Z,6.12
2019-05-19T18:43:16.577Z,5.75
2019-05-19T18:45:46.826Z,5.95
2019-05-19T18:48:17.326Z,5.62
2019-05-19T18:50:47.070Z,6.35
2019-05-19T18:53:16.961Z,7.12
2019-05-19T18:55:46.959Z,6.95
2019-05-19T18:58:16.840Z,6.72
2019-05-19T19:00:46.708Z,6.00
2019-05-19T19:03:16.827Z,6.40
2019-05-19T19:05:48.616Z,7.00
2019-05-19T19:08:18.632Z,6.47
2019-05-19T19:10:48.510Z,7.33
2019-05-19T19:13:18.271Z,7.65
2019-05-19T19:15:48.152Z,6.80
2019-05-19T19:18:17.915Z,6.85
2019-05-19T19:20:47.551Z,7.65
2019-05-19T19:23:17.312Z,7.65
2019-05-19T19:25:47.434Z,7.97
2019-05-19T19:28:17.556Z,7.55
2019-05-19T19:30:47.437Z,7.83
2019-05-19T19:33:17.195Z,7.80
2019-05-19T19:35:47.317Z,7.92
2019-05-19T19:38:17.074Z,7.70
2019-05-19T19:40:46.722Z,7.65
2019-05-19T19:43:16.362Z,7.25
2019-05-19T19:45:46.824Z,7.62
2019-05-19T19:48:16.608Z,8.05
2019-05-19T19:50:46.369Z,8.68
2019-05-19T19:53:16.122Z,8.03
2019-05-19T19:55:46.006Z,8.48
2019-05-19T19:58:16.274Z,7.78
2019-05-19T20:00:46.853Z,8.60
2019-05-19T20:03:16.610Z,7.97
2019-05-19T20:05:46.493Z,8.45
2019-05-19T20:08:16.270Z,9.00
2019-05-19T20:10:46.377Z,8.23
2019-05-19T20:13:16.009Z,8.98
2019-05-19T20:15:46.006Z,9.48
2019-05-19T20:18:16.136Z,9.18
2019-05-19T20:20:46.372Z,10.32
2019-05-19T20:23:16.133Z,10.88
2019-05-19T20:25:46.612Z,10.90
2019-05-19T20:28:16.375Z,12.53
2019-05-19T20:30:46.497Z,14.30
2019-05-19T20:33:16.618Z,12.93
2019-05-19T20:35:46.498Z,12.82
2019-05-19T20:38:16.616Z,11.60
2019-05-19T20:40:46.859Z,11.88
2019-05-19T20:43:16.625Z,11.55
2019-05-19T20:45:46.860Z,10.25
2019-05-19T20:48:16.999Z,10.32
2019-05-19T20:50:46.748Z,10.93
2019-05-19T20:53:17.215Z,11.05
2019-05-19T20:55:47.106Z,12.43
2019-05-19T20:58:18.805Z,11.57
2019-05-19T21:00:51.184Z,11.48
2019-05-19T21:03:20.106Z,11.48
2019-05-19T21:05:50.350Z,11.50
2019-05-19T21:08:20.469Z,11.53
2019-05-19T21:10:50.589Z,11.48
2019-05-19T21:13:23.955Z,11.05
2019-05-19T21:15:54.294Z,11.50
2019-05-19T21:18:26.327Z,11.85
2019-05-19T21:20:56.356Z,12.18
2019-05-19T21:23:25.994Z,12.13
2019-05-19T21:25:57.685Z,11.73
2019-05-19T21:28:29.117Z,12.80
2019-05-19T21:31:05.688Z,13.35
2019-05-19T21:33:34.875Z,11.95
2019-05-19T21:36:05.487Z,13.03
2019-05-19T21:38:35.476Z,12.82
2019-05-19T21:41:05.240Z,13.62
2019-05-19T21:43:34.883Z,12.75
2019-05-19T21:46:06.456Z,12.65
2019-05-19T21:48:36.564Z,12.63
2019-05-19T21:51:06.321Z,12.70
2019-05-19T21:53:36.201Z,14.07
2019-05-19T21:56:06.573Z,13.58
2019-05-19T21:58:36.355Z,15.00
2019-05-19T22:01:06.342Z,14.68
2019-05-19T22:03:36.774Z,15.30
2019-05-19T22:06:07.298Z,14.23
2019-05-19T22:08:37.187Z,14.80
2019-05-19T22:11:07.446Z,14.05
2019-05-19T22:13:37.657Z,14.38
2019-05-19T22:16:13.100Z,15.00
2019-05-19T22:18:39.119Z,14.50
2019-05-19T22:21:09.178Z,14.07
2019-05-19T22:23:39.795Z,14.83
2019-05-19T22:26:09.966Z,15.05
2019-05-19T22:28:39.785Z,14.75
2019-05-19T22:31:09.721Z,15.43
2019-05-19T22:33:39.581Z,15.68
2019-05-19T22:36:09.585Z,14.15
2019-05-19T22:38:58.756Z,14.33
2019-05-19T22:41:29.035Z,14.38
2019-05-19T22:43:58.926Z,13.62
2019-05-19T22:46:28.656Z,13.53
2019-05-19T22:48:58.659Z,13.85
2019-05-19T22:51:28.781Z,13.90
2019-05-19T22:53:58.424Z,14.70
2019-05-19T22:56:28.661Z,18.10
2019-05-19T22:58:58.544Z,13.32
2019-05-19T23:01:28.667Z,14.53
2019-05-19T23:03:58.424Z,14.78
2019-05-19T23:06:28.306Z,15.38
2019-05-19T23:08:58.074Z,18.12
2019-05-19T23:11:28.190Z,19.20
2019-05-19T23:13:58.316Z,20.92
2019-05-19T23:16:30.124Z,17.30
2019-05-19T23:19:00.233Z,20.50
2019-05-19T23:21:30.347Z,18.82
2019-05-19T23:24:00.348Z,15.00
2019-05-19T23:26:30.350Z,14.53
2019-05-19T23:29:00.238Z,14.65
2019-05-19T23:31:29.871Z,14.38
2019-05-19T23:33:59.752Z,14.55
2019-05-19T23:36:29.396Z,14.43
2019-05-19T23:38:59.515Z,15.32
2019-05-19T23:41:29.154Z,15.48
2019-05-19T23:43:58.800Z,14.63
2019-05-19T23:46:28.556Z,14.65
2019-05-19T23:48:58.457Z,15.50
2019-05-19T23:51:28.563Z,13.48
2019-05-19T23:53:58.440Z,14.60
2019-05-19T23:56:28.558Z,15.45
2019-05-19T23:58:58.329Z,14.73
